createdAt,value
2023-02-28T00:01:29.425Z,1.60
2023-02-28T00:03:59.904Z,1.40
2023-02-28T00:06:28.876Z,1.30
2023-02-28T00:08:57.445Z,1.70
2023-02-28T00:11:26.282Z,1.73
2023-02-28T00:13:54.595Z,1.70
2023-02-28T00:16:24.499Z,1.67
2023-02-28T00:18:53.132Z,1.30
2023-02-28T00:21:22.941Z,1.50
2023-02-28T00:23:51.108Z,1.37
2023-02-28T00:26:21.809Z,1.87
2023-02-28T00:28:50.648Z,1.40
2023-02-28T00:31:19.159Z,1.13
2023-02-28T00:33:47.372Z,1.40
2023-02-28T00:36:16.096Z,1.40
2023-02-28T00:38:45.624Z,1.60
2023-02-28T00:41:14.018Z,1.33
2023-02-28T00:43:42.742Z,1.60
2023-02-28T00:46:11.132Z,1.00
2023-02-28T00:48:39.742Z,1.20
2023-02-28T00:51:08.309Z,1.33
2023-02-28T00:53:36.488Z,1.23
2023-02-28T00:56:06.668Z,1.30
2023-02-28T00:58:35.052Z,1.50
2023-02-28T01:01:03.384Z,1.30
2023-02-28T01:03:32.107Z,1.30
2023-02-28T01:06:00.730Z,1.20
2023-02-28T01:08:28.912Z,1.27
2023-02-28T01:10:57.787Z,1.60
2023-02-28T01:13:27.533Z,1.40
2023-02-28T01:15:58.211Z,1.17
2023-02-28T01:18:27.015Z,1.50
2023-02-28T01:20:55.738Z,1.20
2023-02-28T01:23:25.060Z,1.30
2023-02-28T01:25:54.107Z,1.10
2023-02-28T01:28:22.386Z,1.17
2023-02-28T01:30:52.982Z,1.27
2023-02-28T01:33:21.949Z,1.17
2023-02-28T01:35:50.920Z,1.13
2023-02-28T01:38:23.445Z,1.07
2023-02-28T01:40:52.723Z,1.23
2023-02-28T01:43:25.228Z,1.10
2023-02-28T01:45:57.231Z,1.03
2023-02-28T01:48:29.542Z,1.20
2023-02-28T01:51:02.416Z,1.30
2023-02-28T01:53:34.464Z,1.00
2023-02-28T01:56:06.228Z,1.30
2023-02-28T01:58:34.467Z,1.00
2023-02-28T02:01:04.481Z,0.93
2023-02-28T02:03:33.324Z,1.40
2023-02-28T02:06:01.597Z,0.77
2023-02-28T02:08:31.620Z,0.90
2023-02-28T02:11:02.280Z,1.00
2023-02-28T02:13:43.595Z,1.00
2023-02-28T02:16:26.112Z,0.70
2023-02-28T02:18:59.688Z,0.60
2023-02-28T02:21:57.150Z,1.00
2023-02-28T02:25:06.832Z,0.70
2023-02-28T02:28:04.901Z,0.70
2023-02-28T02:31:04.391Z,0.63
2023-02-28T02:33:58.365Z,0.80
2023-02-28T02:36:32.742Z,0.60
2023-02-28T02:39:06.626Z,0.70
2023-02-28T02:41:41.565Z,0.70
2023-02-28T02:44:15.520Z,0.90
2023-02-28T02:46:46.173Z,0.80
2023-02-28T02:49:24.026Z,0.90
2023-02-28T02:51:54.322Z,0.60
2023-02-28T02:54:30.033Z,0.70
2023-02-28T02:57:02.368Z,0.80
2023-02-28T02:59:32.405Z,0.80
2023-02-28T03:02:04.522Z,0.60
2023-02-28T03:04:37.076Z,0.47
2023-02-28T03:07:06.666Z,0.50
2023-02-28T03:09:37.776Z,0.57
2023-02-28T03:12:09.107Z,0.67
2023-02-28T03:14:48.384Z,0.50
2023-02-28T03:17:57.657Z,0.70
2023-02-28T03:20:37.106Z,0.60
2023-02-28T03:23:17.528Z,0.70
2023-02-28T03:25:58.190Z,0.80
2023-02-28T03:28:36.033Z,0.50
2023-02-28T03:31:12.477Z,0.83
2023-02-28T03:33:45.673Z,0.60
2023-02-28T03:36:18.569Z,0.47
2023-02-28T03:38:51.964Z,0.90
2023-02-28T03:41:23.720Z,0.50
2023-02-28T03:43:59.260Z,0.60
2023-02-28T03:46:32.378Z,0.67
2023-02-28T03:49:06.404Z,0.63
2023-02-28T03:51:36.255Z,0.60
2023-02-28T03:54:12.416Z,0.60
2023-02-28T03:56:45.530Z,0.60
2023-02-28T03:59:19.203Z,0.50
2023-02-28T04:01:49.952Z,0.60
2023-02-28T04:04:19.050Z,0.67
2023-02-28T04:06:47.899Z,0.60
2023-02-28T04:09:17.987Z,0.50
2023-02-28T04:11:50.939Z,0.83
2023-02-28T04:14:19.384Z,0.50
2023-02-28T04:16:48.127Z,0.60
2023-02-28T04:19:17.224Z,0.67
2023-02-28T04:21:46.935Z,0.70
2023-02-28T04:24:19.786Z,0.73
2023-02-28T04:26:50.547Z,0.50
2023-02-28T04:29:22.713Z,0.50
2023-02-28T04:31:51.414Z,0.60
2023-02-28T04:34:20.045Z,0.40
2023-02-28T04:36:59.595Z,0.63
2023-02-28T04:39:38.055Z,0.70
2023-02-28T04:42:06.744Z,0.53
2023-02-28T04:44:35.015Z,0.50
2023-02-28T04:47:03.262Z,1.10
2023-02-28T04:49:31.961Z,0.60
2023-02-28T04:52:00.266Z,0.50
2023-02-28T04:54:29.372Z,0.60
2023-02-28T04:56:59.272Z,0.50
2023-02-28T04:59:27.895Z,0.70
2023-02-28T05:01:56.165Z,0.53
2023-02-28T05:04:24.828Z,0.70
2023-02-28T05:06:53.717Z,0.63
2023-02-28T05:09:21.854Z,0.73
2023-02-28T05:11:50.506Z,0.90
2023-02-28T05:14:20.596Z,0.50
2023-02-28T05:16:48.807Z,0.70
2023-02-28T05:19:17.128Z,0.50
2023-02-28T05:21:53.290Z,0.60
2023-02-28T05:24:24.141Z,0.50
2023-02-28T05:26:54.070Z,0.70
2023-02-28T05:29:24.379Z,0.60
2023-02-28T05:31:53.198Z,0.83
2023-02-28T05:34:21.572Z,0.60
2023-02-28T05:36:50.223Z,0.60
2023-02-28T05:39:18.627Z,0.40
2023-02-28T05:41:46.743Z,0.60
2023-02-28T05:44:14.967Z,0.60
2023-02-28T05:46:44.550Z,0.60
2023-02-28T05:49:12.750Z,0.70
2023-02-28T05:51:41.264Z,0.60
2023-02-28T05:54:10.157Z,0.70
2023-02-28T05:56:40.164Z,0.60
2023-02-28T05:59:08.700Z,0.50
2023-02-28T06:01:38.733Z,0.70
2023-02-28T06:04:19.235Z,0.80
2023-02-28T06:06:52.328Z,0.63
2023-02-28T06:09:21.412Z,0.63
2023-02-28T06:11:49.653Z,0.60
2023-02-28T06:14:19.307Z,0.60
2023-02-28T06:16:48.494Z,0.80
2023-02-28T06:19:18.374Z,0.40
2023-02-28T06:21:46.639Z,0.60
2023-02-28T06:24:15.230Z,0.60
2023-02-28T06:26:43.484Z,0.60
2023-02-28T06:29:12.109Z,0.73
2023-02-28T06:31:40.983Z,0.67
2023-02-28T06:34:09.145Z,0.63
2023-02-28T06:36:39.150Z,0.70
2023-02-28T06:39:08.599Z,0.73
2023-02-28T06:41:53.736Z,0.73
2023-02-28T06:44:23.552Z,0.67
2023-02-28T06:46:52.380Z,0.50
2023-02-28T06:49:20.595Z,0.80
2023-02-28T06:51:50.938Z,0.70
2023-02-28T06:54:19.085Z,0.43
2023-02-28T06:56:48.105Z,0.50
2023-02-28T06:59:16.432Z,0.60
2023-02-28T07:01:44.638Z,0.60
2023-02-28T07:04:14.199Z,0.67
2023-02-28T07:06:42.990Z,0.80
2023-02-28T07:09:12.860Z,0.80
2023-02-28T07:11:41.964Z,0.97
2023-02-28T07:14:10.940Z,0.80
2023-02-28T07:16:39.259Z,1.10
2023-02-28T07:19:07.548Z,1.20
2023-02-28T07:21:35.854Z,2.00
2023-02-28T07:24:04.600Z,1.73
2023-02-28T07:26:35.238Z,2.60
2023-02-28T07:29:04.287Z,2.03
2023-02-28T07:31:32.850Z,1.90
2023-02-28T07:34:01.538Z,2.07
2023-02-28T07:36:30.113Z,2.10
2023-02-28T07:38:58.761Z,1.83
2023-02-28T07:41:29.135Z,1.40
2023-02-28T07:44:00.743Z,1.37
2023-02-28T07:46:30.918Z,0.80
2023-02-28T07:49:00.546Z,0.60
2023-02-28T07:51:29.811Z,0.57
2023-02-28T07:53:58.558Z,0.80
2023-02-28T07:56:26.981Z,0.90
2023-02-28T07:58:56.073Z,0.80
2023-02-28T08:01:25.617Z,1.00
2023-02-28T08:03:54.874Z,1.10
2023-02-28T08:06:27.524Z,1.40
2023-02-28T08:08:57.204Z,1.20
2023-02-28T08:11:25.840Z,1.40
2023-02-28T08:13:53.990Z,1.50
2023-02-28T08:16:23.562Z,1.50
2023-02-28T08:18:54.514Z,1.70
2023-02-28T08:21:23.575Z,1.50
2023-02-28T08:23:52.989Z,1.30
2023-02-28T08:26:21.874Z,1.13
2023-02-28T08:28:50.000Z,1.53
2023-02-28T08:31:19.933Z,1.67
2023-02-28T08:33:50.025Z,1.37
2023-02-28T08:36:20.188Z,1.23
2023-02-28T08:38:48.360Z,1.27
2023-02-28T08:41:17.029Z,0.70
2023-02-28T08:43:45.394Z,0.50
2023-02-28T08:46:15.448Z,0.47
2023-02-28T08:48:43.976Z,0.70
2023-02-28T08:51:13.992Z,0.50
2023-02-28T08:53:43.970Z,0.60
2023-02-28T08:56:14.214Z,0.70
2023-02-28T08:58:42.630Z,0.53
2023-02-28T09:01:13.059Z,0.70
2023-02-28T09:03:43.189Z,0.50
2023-02-28T09:06:12.402Z,0.60
2023-02-28T09:08:41.043Z,1.00
2023-02-28T09:11:11.319Z,0.70
2023-02-28T09:13:40.291Z,0.67
2023-02-28T09:16:10.378Z,0.70
2023-02-28T09:18:39.798Z,0.80
2023-02-28T09:21:09.382Z,0.50
2023-02-28T09:23:39.218Z,0.60
2023-02-28T09:26:08.601Z,0.77
2023-02-28T09:28:38.160Z,0.57
2023-02-28T09:31:06.546Z,0.50
2023-02-28T09:33:35.802Z,0.70
2023-02-28T09:36:05.462Z,0.60
2023-02-28T09:38:33.720Z,0.60
2023-02-28T09:41:05.877Z,0.60
2023-02-28T09:43:40.215Z,0.53
2023-02-28T09:46:16.842Z,0.60
2023-02-28T09:48:49.292Z,0.80
2023-02-28T09:51:29.642Z,0.50
2023-02-28T09:54:01.880Z,0.90
2023-02-28T09:56:35.460Z,1.00
2023-02-28T09:59:12.565Z,1.00
2023-02-28T10:01:49.206Z,0.70
2023-02-28T10:04:32.831Z,0.60
2023-02-28T10:07:05.504Z,0.70
2023-02-28T10:09:35.598Z,0.60
2023-02-28T10:12:07.574Z,0.60
2023-02-28T10:14:37.473Z,0.60
2023-02-28T10:17:14.674Z,0.50
2023-02-28T10:19:48.947Z,0.50
2023-02-28T10:22:20.354Z,0.40
2023-02-28T10:24:49.951Z,0.40
2023-02-28T10:27:21.224Z,0.70
2023-02-28T10:29:52.615Z,0.50
2023-02-28T10:32:25.418Z,0.40
2023-02-28T10:34:56.265Z,0.50
2023-02-28T10:37:24.949Z,0.60
2023-02-28T10:39:53.235Z,0.40
2023-02-28T10:42:26.587Z,0.50
2023-02-28T10:45:14.231Z,0.50
2023-02-28T10:47:54.716Z,0.40
2023-02-28T10:50:39.428Z,0.50
2023-02-28T10:53:19.028Z,0.50
2023-02-28T10:55:47.308Z,0.67
2023-02-28T10:58:25.446Z,0.50
2023-02-28T11:00:56.124Z,0.40
2023-02-28T11:03:32.941Z,0.40
2023-02-28T11:06:07.244Z,0.60
2023-02-28T11:08:36.544Z,0.40
2023-02-28T11:11:08.665Z,0.37
2023-02-28T11:13:39.459Z,0.70
2023-02-28T11:16:12.724Z,0.40
2023-02-28T11:18:45.197Z,0.60
2023-02-28T11:21:21.931Z,0.40
2023-02-28T11:23:53.201Z,0.77
2023-02-28T11:26:40.422Z,0.47
2023-02-28T11:29:18.100Z,0.50
2023-02-28T11:32:04.639Z,0.70
2023-02-28T11:34:33.859Z,0.40
2023-02-28T11:37:06.389Z,0.87
2023-02-28T11:39:35.446Z,0.50
2023-02-28T11:42:16.860Z,0.40
2023-02-28T11:44:56.898Z,0.40
2023-02-28T11:47:34.781Z,0.50
2023-02-28T11:50:18.940Z,0.50
2023-02-28T11:52:53.886Z,0.50
2023-02-28T11:55:26.859Z,0.60
2023-02-28T11:58:22.168Z,0.50
2023-02-28T12:01:09.449Z,0.40
2023-02-28T12:03:48.023Z,0.50
2023-02-28T12:06:23.372Z,0.50
2023-02-28T12:09:13.099Z,0.30
2023-02-28T12:11:50.486Z,0.40
2023-02-28T12:14:52.073Z,0.43
2023-02-28T12:17:34.747Z,0.43
2023-02-28T12:20:18.852Z,0.60
2023-02-28T12:22:56.383Z,0.40
2023-02-28T12:25:59.051Z,0.43
2023-02-28T12:28:32.407Z,0.40
2023-02-28T12:31:03.621Z,0.30
2023-02-28T12:33:38.008Z,0.50
2023-02-28T12:36:13.662Z,0.43
2023-02-28T12:38:45.680Z,0.40
2023-02-28T12:41:18.565Z,0.40
2023-02-28T12:43:52.340Z,0.47
2023-02-28T12:46:25.404Z,0.30
2023-02-28T12:48:58.681Z,0.60
2023-02-28T12:51:29.738Z,0.40
2023-02-28T12:54:07.348Z,0.50
2023-02-28T12:56:44.715Z,0.53
2023-02-28T12:59:21.609Z,0.40
2023-02-28T13:02:02.920Z,0.40
2023-02-28T13:04:55.482Z,0.40
2023-02-28T13:07:43.607Z,0.50
2023-02-28T13:10:12.757Z,0.60
2023-02-28T13:12:51.298Z,0.60
2023-02-28T13:15:25.210Z,0.40
2023-02-28T13:17:55.767Z,0.50
2023-02-28T13:20:27.535Z,0.40
2023-02-28T13:22:58.259Z,0.50
2023-02-28T13:25:54.887Z,0.50
2023-02-28T13:29:09.521Z,0.53
2023-02-28T13:32:14.938Z,0.60
2023-02-28T13:34:49.596Z,0.50
2023-02-28T13:37:37.101Z,0.57
2023-02-28T13:40:38.376Z,0.70
2023-02-28T13:43:10.941Z,0.50
2023-02-28T13:45:40.854Z,0.57
2023-02-28T13:48:20.219Z,0.50
2023-02-28T13:50:48.521Z,0.60
2023-02-28T13:53:38.234Z,0.60
2023-02-28T13:56:21.359Z,0.60
2023-02-28T13:58:56.690Z,0.50
2023-02-28T14:01:45.188Z,0.60
2023-02-28T14:04:50.082Z,0.70
2023-02-28T14:07:25.178Z,0.70
2023-02-28T14:09:59.514Z,0.60
2023-02-28T14:12:57.155Z,0.57
2023-02-28T14:15:40.256Z,0.53
2023-02-28T14:18:18.956Z,0.50
2023-02-28T14:20:49.744Z,0.70
2023-02-28T14:23:28.972Z,0.60
2023-02-28T14:26:07.861Z,0.67
2023-02-28T14:28:55.617Z,0.60
2023-02-28T14:31:27.669Z,0.63
2023-02-28T14:34:16.938Z,0.40
2023-02-28T14:36:46.013Z,0.60
2023-02-28T14:39:16.557Z,0.50
2023-02-28T14:41:46.913Z,0.43
2023-02-28T14:44:19.641Z,0.73
2023-02-28T14:46:50.888Z,0.50
2023-02-28T14:49:22.880Z,0.70
2023-02-28T14:52:03.769Z,0.57
2023-02-28T14:54:32.429Z,0.60
2023-02-28T14:57:00.655Z,0.60
2023-02-28T14:59:33.489Z,0.67
2023-02-28T15:02:23.009Z,0.47
2023-02-28T15:04:58.978Z,0.60
2023-02-28T15:07:30.657Z,0.50
2023-02-28T15:10:20.557Z,1.37
2023-02-28T15:12:54.966Z,0.70
2023-02-28T15:15:36.074Z,0.60
2023-02-28T15:18:12.789Z,0.67
2023-02-28T15:20:43.547Z,0.60
2023-02-28T15:23:12.689Z,0.60
2023-02-28T15:25:42.981Z,0.70
2023-02-28T15:28:18.758Z,0.60
2023-02-28T15:30:57.125Z,0.80
2023-02-28T15:33:27.514Z,0.77
2023-02-28T15:36:13.061Z,0.60
2023-02-28T15:38:41.692Z,0.80
2023-02-28T15:41:25.898Z,0.77
2023-02-28T15:44:19.344Z,0.70
2023-02-28T15:47:02.462Z,0.67
2023-02-28T15:49:42.722Z,0.60
2023-02-28T15:52:17.136Z,0.60
2023-02-28T15:54:47.077Z,0.70
2023-02-28T15:57:21.132Z,0.70
2023-02-28T15:59:55.159Z,0.60
2023-02-28T16:02:34.036Z,0.80
2023-02-28T16:05:16.604Z,0.70
2023-02-28T16:07:46.079Z,0.90
2023-02-28T16:10:16.156Z,0.80
2023-02-28T16:12:45.263Z,0.87
2023-02-28T16:15:21.597Z,0.90
2023-02-28T16:17:52.247Z,0.80
2023-02-28T16:20:23.460Z,0.70
2023-02-28T16:22:52.347Z,0.83
2023-02-28T16:25:25.057Z,0.90
2023-02-28T16:27:55.851Z,0.60
2023-02-28T16:30:26.104Z,0.87
2023-02-28T16:32:57.558Z,0.70
2023-02-28T16:35:26.468Z,0.93
2023-02-28T16:37:55.266Z,0.93
2023-02-28T16:40:26.317Z,0.63
2023-02-28T16:42:58.038Z,0.70
2023-02-28T16:45:28.581Z,0.90
2023-02-28T16:47:59.131Z,0.60
2023-02-28T16:50:29.659Z,0.80
2023-02-28T16:52:58.684Z,0.80
2023-02-28T16:55:29.588Z,0.70
2023-02-28T16:57:59.302Z,0.80
2023-02-28T17:00:29.350Z,0.90
2023-02-28T17:03:00.207Z,0.80
2023-02-28T17:05:30.516Z,1.00
2023-02-28T17:07:58.821Z,0.73
2023-02-28T17:10:29.213Z,0.80
2023-02-28T17:13:06.102Z,0.77
2023-02-28T17:15:39.512Z,1.77
2023-02-28T17:18:11.991Z,0.67
2023-02-28T17:20:40.762Z,0.90
2023-02-28T17:23:09.402Z,0.83
2023-02-28T17:25:37.530Z,0.90
2023-02-28T17:28:06.709Z,0.70
2023-02-28T17:30:37.029Z,0.60
2023-02-28T17:33:05.462Z,0.80
2023-02-28T17:35:35.409Z,1.00
2023-02-28T17:38:03.576Z,0.80
2023-02-28T17:40:31.928Z,1.10
2023-02-28T17:43:00.591Z,0.77
2023-02-28T17:45:28.834Z,0.70
2023-02-28T17:47:56.937Z,0.80
2023-02-28T17:50:25.789Z,0.80
2023-02-28T17:52:55.370Z,0.67
2023-02-28T17:55:23.455Z,0.90
2023-02-28T17:57:51.755Z,0.77
2023-02-28T18:00:22.996Z,0.70
2023-02-28T18:02:51.237Z,0.80
2023-02-28T18:05:20.301Z,0.80
2023-02-28T18:07:48.671Z,0.90
2023-02-28T18:10:20.621Z,1.00
2023-02-28T18:12:50.127Z,0.80
2023-02-28T18:15:21.001Z,0.80
2023-02-28T18:17:49.845Z,0.77
2023-02-28T18:20:18.703Z,0.70
2023-02-28T18:22:47.521Z,0.77
2023-02-28T18:25:18.014Z,0.90
2023-02-28T18:27:58.619Z,1.03
2023-02-28T18:30:30.367Z,0.77
2023-02-28T18:33:00.437Z,0.97
2023-02-28T18:35:39.915Z,0.87
2023-02-28T18:38:10.592Z,0.90
2023-02-28T18:40:40.772Z,0.83
2023-02-28T18:43:09.712Z,0.90
2023-02-28T18:45:39.066Z,0.97
2023-02-28T18:48:07.888Z,0.93
2023-02-28T18:50:38.738Z,0.90
2023-02-28T18:53:07.034Z,0.80
2023-02-28T18:55:35.166Z,0.90
2023-02-28T18:58:05.338Z,0.93
2023-02-28T19:00:34.287Z,1.20
2023-02-28T19:03:02.914Z,0.83
2023-02-28T19:05:34.374Z,0.90
2023-02-28T19:08:03.073Z,1.00
2023-02-28T19:10:31.445Z,1.00
2023-02-28T19:12:59.683Z,1.13
2023-02-28T19:15:29.880Z,1.00
2023-02-28T19:17:58.063Z,0.87
2023-02-28T19:20:26.338Z,0.97
2023-02-28T19:22:54.979Z,1.20
2023-02-28T19:25:24.120Z,1.27
2023-02-28T19:27:53.584Z,1.10
2023-02-28T19:30:22.822Z,1.37
2023-02-28T19:32:52.416Z,0.70
2023-02-28T19:35:20.661Z,0.80
2023-02-28T19:37:49.444Z,0.90
2023-02-28T19:40:18.022Z,0.90
2023-02-28T19:42:46.214Z,0.70
2023-02-28T19:45:15.203Z,0.70
2023-02-28T19:47:43.942Z,1.00
2023-02-28T19:50:13.752Z,0.70
2023-02-28T19:52:43.844Z,0.90
2023-02-28T19:55:13.956Z,1.00
2023-02-28T19:57:42.164Z,0.90
2023-02-28T20:00:12.181Z,1.00
2023-02-28T20:02:41.117Z,0.90
2023-02-28T20:05:10.114Z,0.83
2023-02-28T20:07:40.045Z,0.90
2023-02-28T20:10:09.033Z,1.00
2023-02-28T20:12:37.312Z,1.57
2023-02-28T20:15:06.689Z,1.47
2023-02-28T20:17:35.002Z,1.37
2023-02-28T20:20:03.666Z,1.00
2023-02-28T20:22:32.242Z,1.37
2023-02-28T20:25:01.809Z,1.10
2023-02-28T20:27:32.669Z,2.70
2023-02-28T20:30:01.304Z,1.83
2023-02-28T20:32:29.572Z,1.60
2023-02-28T20:34:58.049Z,1.20
2023-02-28T20:37:26.261Z,1.33
2023-02-28T20:39:54.424Z,1.30
2023-02-28T20:42:23.987Z,1.80
2023-02-28T20:44:52.369Z,1.50
2023-02-28T20:47:21.000Z,1.17
2023-02-28T20:49:49.698Z,1.80
2023-02-28T20:52:18.254Z,1.70
2023-02-28T20:54:46.706Z,1.80
2023-02-28T20:57:15.297Z,1.67
2023-02-28T20:59:44.892Z,1.23
2023-02-28T21:02:17.155Z,2.10
2023-02-28T21:04:45.960Z,1.50
2023-02-28T21:07:14.116Z,1.43
2023-02-28T21:09:43.021Z,1.53
2023-02-28T21:12:11.152Z,1.73
2023-02-28T21:14:39.871Z,1.60
2023-02-28T21:17:10.454Z,1.10
2023-02-28T21:19:39.014Z,1.20
2023-02-28T21:22:07.318Z,1.27
2023-02-28T21:24:35.514Z,1.00
2023-02-28T21:27:04.098Z,1.00
2023-02-28T21:29:32.548Z,1.20
2023-02-28T21:32:00.749Z,1.30
2023-02-28T21:34:30.871Z,0.90
2023-02-28T21:36:59.119Z,1.07
2023-02-28T21:39:30.072Z,1.30
2023-02-28T21:42:04.189Z,1.10
2023-02-28T21:44:34.407Z,1.30
2023-02-28T21:47:02.781Z,1.30
2023-02-28T21:49:32.973Z,1.00
2023-02-28T21:52:01.518Z,0.93
2023-02-28T21:54:29.727Z,1.00
2023-02-28T21:56:59.766Z,1.13
2023-02-28T21:59:28.444Z,1.33
2023-02-28T22:01:56.644Z,0.90
2023-02-28T22:04:25.579Z,1.00
2023-02-28T22:06:57.280Z,1.20
2023-02-28T22:09:26.606Z,1.30
2023-02-28T22:11:54.889Z,1.50
2023-02-28T22:14:23.056Z,1.20
2023-02-28T22:16:54.399Z,1.17
2023-02-28T22:19:23.964Z,1.40
2023-02-28T22:21:55.281Z,1.83
2023-02-28T22:24:24.755Z,1.80
2023-02-28T22:26:54.125Z,1.80
2023-02-28T22:29:22.431Z,1.70
2023-02-28T22:31:51.391Z,1.80
2023-02-28T22:34:20.759Z,1.77
2023-02-28T22:36:49.070Z,1.80
2023-02-28T22:39:19.337Z,2.03
2023-02-28T22:41:47.596Z,1.93
2023-02-28T22:44:16.416Z,2.27
2023-02-28T22:46:44.762Z,1.40
2023-02-28T22:49:13.049Z,1.77
2023-02-28T22:51:41.191Z,1.37
2023-02-28T22:54:10.601Z,1.50
2023-02-28T22:56:40.232Z,1.50
2023-02-28T22:59:08.414Z,1.20
2023-02-28T23:01:37.052Z,1.23
2023-02-28T23:04:05.619Z,1.10
2023-02-28T23:06:37.804Z,1.30
2023-02-28T23:09:08.583Z,1.10
2023-02-28T23:11:42.222Z,0.90
2023-02-28T23:14:12.743Z,1.23
2023-02-28T23:16:43.083Z,1.20
2023-02-28T23:19:13.955Z,1.10
2023-02-28T23:21:43.400Z,0.83
2023-02-28T23:24:13.021Z,1.07
2023-02-28T23:26:44.945Z,0.83
2023-02-28T23:29:13.800Z,1.00
2023-02-28T23:31:42.334Z,0.97
2023-02-28T23:34:11.204Z,1.40
2023-02-28T23:36:43.514Z,1.07
2023-02-28T23:39:11.683Z,0.90
2023-02-28T23:41:40.664Z,1.20
2023-02-28T23:44:16.825Z,1.30
2023-02-28T23:46:46.461Z,1.00
2023-02-28T23:49:15.532Z,1.10
2023-02-28T23:51:43.853Z,1.17
2023-02-28T23:54:12.420Z,1.17
2023-02-28T23:56:40.647Z,1.00
2023-02-28T23:59:10.311Z,0.87
